sensor_id;sensor_type;location;lat;lon;timestamp;pressure;altitude;pressure_sealevel;temperature;humidity
70407;BME280;57821;52.202;0.154;2024-01-30T00:02:24;102032.47;;;12.31;83.87
70407;BME280;57821;52.202;0.154;2024-01-30T00:04:52;102030.78;;;12.33;83.13
70407;BME280;57821;52.202;0.154;2024-01-30T00:07:19;102034.25;;;12.35;83.25
70407;BME280;57821;52.202;0.154;2024-01-30T00:09:47;102031.66;;;12.37;83.12
70407;BME280;57821;52.202;0.154;2024-01-30T00:12:14;102033.41;;;12.38;83.57
70407;BME280;57821;52.202;0.154;2024-01-30T00:14:42;102029.97;;;12.39;83.57
70407;BME280;57821;52.202;0.154;2024-01-30T00:17:10;102026.50;;;12.40;83.58
70407;BME280;57821;52.202;0.154;2024-01-30T00:19:36;102028.25;;;12.42;83.99
70407;BME280;57821;52.202;0.154;2024-01-30T00:22:03;102022.19;;;12.40;83.96
70407;BME280;57821;52.202;0.154;2024-01-30T00:24:30;102018.72;;;12.44;84.37
70407;BME280;57821;52.202;0.154;2024-01-30T00:26:57;102026.56;;;12.46;84.13
70407;BME280;57821;52.202;0.154;2024-01-30T00:29:24;102017.88;;;12.47;84.25
70407;BME280;57821;52.202;0.154;2024-01-30T00:31:52;102011.81;;;12.48;83.98
70407;BME280;57821;52.202;0.154;2024-01-30T00:34:19;102004.03;;;12.49;83.75
70407;BME280;57821;52.202;0.154;2024-01-30T00:36:46;101996.22;;;12.49;83.78
70407;BME280;57821;52.202;0.154;2024-01-30T00:39:12;101997.09;;;12.50;84.52
70407;BME280;57821;52.202;0.154;2024-01-30T00:41:42;102001.44;;;12.49;84.29
70407;BME280;57821;52.202;0.154;2024-01-30T00:44:08;101999.69;;;12.50;84.72
70407;BME280;57821;52.202;0.154;2024-01-30T00:46:35;101984.94;;;12.49;84.21
70407;BME280;57821;52.202;0.154;2024-01-30T00:49:02;101976.28;;;12.48;84.83
70407;BME280;57821;52.202;0.154;2024-01-30T00:51:29;101974.53;;;12.49;85.01
70407;BME280;57821;52.202;0.154;2024-01-30T00:53:56;101968.50;;;12.50;84.96
70407;BME280;57821;52.202;0.154;2024-01-30T00:56:23;101969.38;;;12.50;84.96
70407;BME280;57821;52.202;0.154;2024-01-30T00:58:50;101962.41;;;12.52;85.00
70407;BME280;57821;52.202;0.154;2024-01-30T01:01:17;101965.88;;;12.53;85.34
70407;BME280;57821;52.202;0.154;2024-01-30T01:03:44;101964.19;;;12.55;85.49
70407;BME280;57821;52.202;0.154;2024-01-30T01:06:11;101959.03;;;12.58;85.58
70407;BME280;57821;52.202;0.154;2024-01-30T01:08:37;101970.31;;;12.61;85.86
70407;BME280;57821;52.202;0.154;2024-01-30T01:11:04;101975.53;;;12.64;85.27
70407;BME280;57821;52.202;0.154;2024-01-30T01:13:31;101969.47;;;12.67;84.91
70407;BME280;57821;52.202;0.154;2024-01-30T01:15:58;101966.91;;;12.68;85.71
70407;BME280;57821;52.202;0.154;2024-01-30T01:18:24;101944.34;;;12.69;85.70
70407;BME280;57821;52.202;0.154;2024-01-30T01:20:51;101940.00;;;12.71;85.35
70407;BME280;57821;52.202;0.154;2024-01-30T01:23:18;101936.53;;;12.70;84.97
70407;BME280;57821;52.202;0.154;2024-01-30T01:25:46;101933.94;;;12.72;85.56
70407;BME280;57821;52.202;0.154;2024-01-30T01:28:12;101923.50;;;12.70;85.33
70407;BME280;57821;52.202;0.154;2024-01-30T01:30:39;101923.56;;;12.73;84.98
70407;BME280;57821;52.202;0.154;2024-01-30T01:33:06;101936.56;;;12.73;84.71
70407;BME280;57821;52.202;0.154;2024-01-30T01:35:33;101934.81;;;12.75;84.77
70407;BME280;57821;52.202;0.154;2024-01-30T01:38:00;101937.44;;;12.77;85.27
70407;BME280;57821;52.202;0.154;2024-01-30T01:40:27;101923.56;;;12.76;84.79
70407;BME280;57821;52.202;0.154;2024-01-30T01:42:55;101939.22;;;12.80;84.70
70407;BME280;57821;52.202;0.154;2024-01-30T01:45:22;101945.28;;;12.83;84.51
70407;BME280;57821;52.202;0.154;2024-01-30T01:47:52;101949.63;;;12.84;84.74
70407;BME280;57821;52.202;0.154;2024-01-30T01:50:20;101939.22;;;12.83;84.76
70407;BME280;57821;52.202;0.154;2024-01-30T01:52:49;101951.38;;;12.88;84.61
70407;BME280;57821;52.202;0.154;2024-01-30T01:55:17;101945.31;;;12.89;84.64
70407;BME280;57821;52.202;0.154;2024-01-30T01:57:49;101947.94;;;12.91;84.24
70407;BME280;57821;52.202;0.154;2024-01-30T02:00:17;101950.53;;;12.94;83.95
70407;BME280;57821;52.202;0.154;2024-01-30T02:02:47;101960.09;;;12.95;84.09
70407;BME280;57821;52.202;0.154;2024-01-30T02:05:15;101967.03;;;12.94;84.04
70407;BME280;57821;52.202;0.154;2024-01-30T02:07:43;101949.72;;;12.98;83.32
70407;BME280;57821;52.202;0.154;2024-01-30T02:10:10;101942.78;;;12.97;83.65
70407;BME280;57821;52.202;0.154;2024-01-30T02:12:37;101946.22;;;12.99;83.44
70407;BME280;57821;52.202;0.154;2024-01-30T02:15:05;101945.38;;;12.98;82.99
70407;BME280;57821;52.202;0.154;2024-01-30T02:17:31;101966.22;;;12.98;82.55
70407;BME280;57821;52.202;0.154;2024-01-30T02:19:59;101966.22;;;12.98;82.74
70407;BME280;57821;52.202;0.154;2024-01-30T02:22:26;101941.91;;;12.96;82.24
70407;BME280;57821;52.202;0.154;2024-01-30T02:24:53;101954.91;;;12.99;82.37
70407;BME280;57821;52.202;0.154;2024-01-30T02:27:20;101948.84;;;13.00;81.36
70407;BME280;57821;52.202;0.154;2024-01-30T02:29:47;101941.91;;;12.99;81.48
70407;BME280;57821;52.202;0.154;2024-01-30T02:32:14;101950.59;;;13.01;80.86
70407;BME280;57821;52.202;0.154;2024-01-30T02:34:40;101958.41;;;13.01;80.94
70407;BME280;57821;52.202;0.154;2024-01-30T02:37:07;101954.06;;;13.02;80.40
70407;BME280;57821;52.202;0.154;2024-01-30T02:39:34;101955.81;;;13.01;80.92
70407;BME280;57821;52.202;0.154;2024-01-30T02:42:01;101952.34;;;13.02;80.19
70407;BME280;57821;52.202;0.154;2024-01-30T02:44:27;101960.13;;;13.01;80.60
70407;BME280;57821;52.202;0.154;2024-01-30T02:46:55;101947.13;;;13.01;80.05
70407;BME280;57821;52.202;0.154;2024-01-30T02:49:21;101959.25;;;13.00;79.52
70407;BME280;57821;52.202;0.154;2024-01-30T02:51:49;101961.00;;;12.97;79.05
70407;BME280;57821;52.202;0.154;2024-01-30T02:54:16;101947.94;;;12.94;78.60
70407;BME280;57821;52.202;0.154;2024-01-30T02:56:43;101949.69;;;12.92;77.70
70407;BME280;57821;52.202;0.154;2024-01-30T02:59:10;101949.66;;;12.89;78.00
70407;BME280;57821;52.202;0.154;2024-01-30T03:01:46;101943.56;;;12.85;77.31
70407;BME280;57821;52.202;0.154;2024-01-30T03:04:13;101939.22;;;12.83;76.65
70407;BME280;57821;52.202;0.154;2024-01-30T03:06:45;101929.59;;;12.68;77.03
70407;BME280;57821;52.202;0.154;2024-01-30T03:09:13;101943.50;;;12.73;77.44
70407;BME280;57821;52.202;0.154;2024-01-30T03:11:40;101946.94;;;12.72;77.26
70407;BME280;57821;52.202;0.154;2024-01-30T03:14:06;101959.97;;;12.73;76.75
70407;BME280;57821;52.202;0.154;2024-01-30T03:16:34;101956.47;;;12.67;77.30
70407;BME280;57821;52.202;0.154;2024-01-30T03:19:01;101943.41;;;12.58;76.84
70407;BME280;57821;52.202;0.154;2024-01-30T03:21:29;101943.41;;;12.64;76.54
70407;BME280;57821;52.202;0.154;2024-01-30T03:23:56;101954.69;;;12.60;77.41
70407;BME280;57821;52.202;0.154;2024-01-30T03:26:22;101943.38;;;12.56;77.54
70407;BME280;57821;52.202;0.154;2024-01-30T03:28:49;101944.22;;;12.54;77.67
70407;BME280;57821;52.202;0.154;2024-01-30T03:31:16;101953.78;;;12.52;77.68
70407;BME280;57821;52.202;0.154;2024-01-30T03:33:42;101945.06;;;12.48;77.24
70407;BME280;57821;52.202;0.154;2024-01-30T03:36:11;101951.94;;;12.42;77.96
70407;BME280;57821;52.202;0.154;2024-01-30T03:38:38;101951.06;;;12.41;77.92
70407;BME280;57821;52.202;0.154;2024-01-30T03:41:07;101937.13;;;12.28;77.96
70407;BME280;57821;52.202;0.154;2024-01-30T03:43:34;101956.22;;;12.32;78.40
70407;BME280;57821;52.202;0.154;2024-01-30T03:46:02;101944.88;;;12.25;78.63
70407;BME280;57821;52.202;0.154;2024-01-30T03:48:29;101945.72;;;12.24;78.76
70407;BME280;57821;52.202;0.154;2024-01-30T03:50:56;101950.03;;;12.19;78.49
70407;BME280;57821;52.202;0.154;2024-01-30T03:53:23;101962.13;;;12.17;78.67
70407;BME280;57821;52.202;0.154;2024-01-30T03:55:49;101962.97;;;12.13;79.21
70407;BME280;57821;52.202;0.154;2024-01-30T03:58:16;101958.59;;;12.09;78.52
70407;BME280;57821;52.202;0.154;2024-01-30T04:00:43;101965.50;;;12.06;79.52
70407;BME280;57821;52.202;0.154;2024-01-30T04:03:10;101965.44;;;12.01;79.19
70407;BME280;57821;52.202;0.154;2024-01-30T04:05:37;101960.25;;;11.98;79.11
70407;BME280;57821;52.202;0.154;2024-01-30T04:08:04;101965.41;;;11.97;79.17
70407;BME280;57821;52.202;0.154;2024-01-30T04:10:31;101961.03;;;11.91;79.90
70407;BME280;57821;52.202;0.154;2024-01-30T04:12:58;101957.53;;;11.87;80.44
70407;BME280;57821;52.202;0.154;2024-01-30T04:15:25;101959.25;;;11.85;80.04
70407;BME280;57821;52.202;0.154;2024-01-30T04:17:52;101969.63;;;11.84;80.24
70407;BME280;57821;52.202;0.154;2024-01-30T04:20:19;101967.00;;;11.81;80.54
70407;BME280;57821;52.202;0.154;2024-01-30T04:22:56;101968.69;;;11.76;81.06
70407;BME280;57821;52.202;0.154;2024-01-30T04:25:22;101976.47;;;11.76;81.55
70407;BME280;57821;52.202;0.154;2024-01-30T04:27:49;101975.56;;;11.74;81.37
70407;BME280;57821;52.202;0.154;2024-01-30T04:30:16;101976.34;;;11.68;82.30
70407;BME280;57821;52.202;0.154;2024-01-30T04:32:43;101988.41;;;11.63;82.71
70407;BME280;57821;52.202;0.154;2024-01-30T04:35:10;101984.03;;;11.61;82.77
70407;BME280;57821;52.202;0.154;2024-01-30T04:37:38;101984.91;;;11.58;83.41
70407;BME280;57821;52.202;0.154;2024-01-30T04:40:05;101983.09;;;11.54;83.47
70407;BME280;57821;52.202;0.154;2024-01-30T04:42:32;101990.03;;;11.53;83.80
70407;BME280;57821;52.202;0.154;2024-01-30T04:44:59;101990.84;;;11.49;83.97
70407;BME280;57821;52.202;0.154;2024-01-30T04:47:25;101990.81;;;11.46;84.38
70407;BME280;57821;52.202;0.154;2024-01-30T04:49:52;102002.91;;;11.44;84.42
70407;BME280;57821;52.202;0.154;2024-01-30T04:52:19;101999.41;;;11.42;84.23
70407;BME280;57821;52.202;0.154;2024-01-30T04:54:47;102002.88;;;11.41;83.81
70407;BME280;57821;52.202;0.154;2024-01-30T04:57:14;101993.34;;;11.40;84.21
70407;BME280;57821;52.202;0.154;2024-01-30T04:59:40;101997.63;;;11.38;84.63
70407;BME280;57821;52.202;0.154;2024-01-30T05:02:07;102005.44;;;11.38;83.95
70407;BME280;57821;52.202;0.154;2024-01-30T05:04:34;102001.94;;;11.35;84.83
70407;BME280;57821;52.202;0.154;2024-01-30T05:07:01;102000.16;;;11.32;84.73
70407;BME280;57821;52.202;0.154;2024-01-30T05:09:28;102009.63;;;11.30;84.74
70407;BME280;57821;52.202;0.154;2024-01-30T05:11:55;102008.75;;;11.28;84.93
70407;BME280;57821;52.202;0.154;2024-01-30T05:14:22;102021.78;;;11.31;84.47
70407;BME280;57821;52.202;0.154;2024-01-30T05:16:49;102022.63;;;11.30;85.24
70407;BME280;57821;52.202;0.154;2024-01-30T05:19:16;102025.22;;;11.30;84.72
70407;BME280;57821;52.202;0.154;2024-01-30T05:21:43;102020.84;;;11.26;84.99
70407;BME280;57821;52.202;0.154;2024-01-30T05:24:10;102022.56;;;11.26;85.39
70407;BME280;57821;52.202;0.154;2024-01-30T05:26:37;102026.00;;;11.25;84.87
70407;BME280;57821;52.202;0.154;2024-01-30T05:29:05;102024.19;;;11.19;85.13
70407;BME280;57821;52.202;0.154;2024-01-30T05:31:32;102032.91;;;11.23;85.15
70407;BME280;57821;52.202;0.154;2024-01-30T05:33:59;102038.09;;;11.21;85.30
70407;BME280;57821;52.202;0.154;2024-01-30T05:36:26;102037.25;;;11.22;85.89
70407;BME280;57821;52.202;0.154;2024-01-30T05:38:52;102038.03;;;11.17;85.79
70407;BME280;57821;52.202;0.154;2024-01-30T05:41:19;102054.50;;;11.20;85.38
70407;BME280;57821;52.202;0.154;2024-01-30T05:43:47;102055.34;;;11.19;85.51
70407;BME280;57821;52.202;0.154;2024-01-30T05:46:14;102058.78;;;11.17;85.64
70407;BME280;57821;52.202;0.154;2024-01-30T05:48:41;102053.50;;;11.10;85.74
70407;BME280;57821;52.202;0.154;2024-01-30T05:51:09;102051.78;;;11.11;86.62
70407;BME280;57821;52.202;0.154;2024-01-30T05:53:35;102055.19;;;11.08;86.38
70407;BME280;57821;52.202;0.154;2024-01-30T05:56:02;102064.78;;;11.11;86.32
70407;BME280;57821;52.202;0.154;2024-01-30T05:58:29;102069.91;;;11.08;86.76
70407;BME280;57821;52.202;0.154;2024-01-30T06:00:57;102065.59;;;11.08;86.34
70407;BME280;57821;52.202;0.154;2024-01-30T06:03:25;102067.31;;;11.08;86.41
70407;BME280;57821;52.202;0.154;2024-01-30T06:05:51;102071.59;;;11.04;86.73
70407;BME280;57821;52.202;0.154;2024-01-30T06:08:18;102074.97;;;10.99;87.00
70407;BME280;57821;52.202;0.154;2024-01-30T06:10:45;102090.56;;;11.02;86.98
70407;BME280;57821;52.202;0.154;2024-01-30T06:13:12;102092.25;;;10.98;88.15
70407;BME280;57821;52.202;0.154;2024-01-30T06:15:39;102095.63;;;10.93;88.48
70407;BME280;57821;52.202;0.154;2024-01-30T06:18:05;102098.91;;;10.81;88.30
70407;BME280;57821;52.202;0.154;2024-01-30T06:20:32;102100.66;;;10.84;87.96
70407;BME280;57821;52.202;0.154;2024-01-30T06:22:59;102100.63;;;10.81;88.52
70407;BME280;57821;52.202;0.154;2024-01-30T06:25:26;102108.31;;;10.76;88.23
70407;BME280;57821;52.202;0.154;2024-01-30T06:27:52;102109.09;;;10.72;88.70
70407;BME280;57821;52.202;0.154;2024-01-30T06:30:19;102110.66;;;10.62;88.11
70407;BME280;57821;52.202;0.154;2024-01-30T06:32:46;102104.56;;;10.59;88.06
70407;BME280;57821;52.202;0.154;2024-01-30T06:35:12;102121.78;;;10.55;88.11
70407;BME280;57821;52.202;0.154;2024-01-30T06:37:39;102130.41;;;10.53;87.98
70407;BME280;57821;52.202;0.154;2024-01-30T06:40:06;102132.91;;;10.48;87.89
70407;BME280;57821;52.202;0.154;2024-01-30T06:42:33;102131.91;;;10.43;88.95
70407;BME280;57821;52.202;0.154;2024-01-30T06:45:00;102143.13;;;10.41;88.69
70407;BME280;57821;52.202;0.154;2024-01-30T06:47:27;102145.69;;;10.39;89.34
70407;BME280;57821;52.202;0.154;2024-01-30T06:49:55;102146.47;;;10.35;89.06
70407;BME280;57821;52.202;0.154;2024-01-30T06:52:22;102149.84;;;10.31;89.25
70407;BME280;57821;52.202;0.154;2024-01-30T06:54:48;102156.72;;;10.29;89.54
70407;BME280;57821;52.202;0.154;2024-01-30T06:57:15;102162.69;;;10.25;90.11
70407;BME280;57821;52.202;0.154;2024-01-30T06:59:42;102167.81;;;10.22;90.10
70407;BME280;57821;52.202;0.154;2024-01-30T07:02:10;102154.66;;;10.13;89.94
70407;BME280;57821;52.202;0.154;2024-01-30T07:04:37;102170.19;;;10.13;89.95
70407;BME280;57821;52.202;0.154;2024-01-30T07:07:11;102184.88;;;10.14;90.23
70407;BME280;57821;52.202;0.154;2024-01-30T07:09:39;102190.06;;;10.14;90.27
70407;BME280;57821;52.202;0.154;2024-01-30T07:12:06;102199.53;;;10.12;90.36
70407;BME280;57821;52.202;0.154;2024-01-30T07:14:33;102200.31;;;10.08;90.73
70407;BME280;57821;52.202;0.154;2024-01-30T07:17:00;102201.16;;;10.07;91.20
70407;BME280;57821;52.202;0.154;2024-01-30T07:19:27;102210.72;;;10.09;91.26
70407;BME280;57821;52.202;0.154;2024-01-30T07:21:54;102218.44;;;10.08;91.00
70407;BME280;57821;52.202;0.154;2024-01-30T07:24:22;102221.91;;;10.07;91.16
70407;BME280;57821;52.202;0.154;2024-01-30T07:26:49;102227.94;;;10.06;90.86
70407;BME280;57821;52.202;0.154;2024-01-30T07:29:16;102241.72;;;10.05;90.32
70407;BME280;57821;52.202;0.154;2024-01-30T07:31:43;102256.34;;;10.03;90.55
70407;BME280;57821;52.202;0.154;2024-01-30T07:34:09;102257.13;;;9.99;90.70
70407;BME280;57821;52.202;0.154;2024-01-30T07:36:37;102269.25;;;10.00;90.43
70407;BME280;57821;52.202;0.154;2024-01-30T07:39:05;102270.03;;;9.96;90.48
70407;BME280;57821;52.202;0.154;2024-01-30T07:41:32;102272.56;;;9.94;89.79
70407;BME280;57821;52.202;0.154;2024-01-30T07:43:59;102271.59;;;9.90;90.02
70407;BME280;57821;52.202;0.154;2024-01-30T07:46:26;102284.56;;;9.90;89.67
70407;BME280;57821;52.202;0.154;2024-01-30T07:48:53;102284.56;;;9.89;89.18
70407;BME280;57821;52.202;0.154;2024-01-30T07:51:21;102286.19;;;9.85;89.51
70407;BME280;57821;52.202;0.154;2024-01-30T07:53:48;102290.47;;;9.83;89.05
70407;BME280;57821;52.202;0.154;2024-01-30T07:56:14;102298.19;;;9.82;89.23
70407;BME280;57821;52.202;0.154;2024-01-30T07:58:43;102298.16;;;9.80;89.41
70407;BME280;57821;52.202;0.154;2024-01-30T08:01:10;102302.41;;;9.78;89.20
70407;BME280;57821;52.202;0.154;2024-01-30T08:03:37;102312.66;;;9.72;89.28
70407;BME280;57821;52.202;0.154;2024-01-30T08:06:06;102331.78;;;9.79;89.09
70407;BME280;57821;52.202;0.154;2024-01-30T08:08:33;102338.66;;;9.77;89.16
70407;BME280;57821;52.202;0.154;2024-01-30T08:11:00;102336.84;;;9.74;89.30
70407;BME280;57821;52.202;0.154;2024-01-30T08:13:27;102349.81;;;9.74;88.62
70407;BME280;57821;52.202;0.154;2024-01-30T08:15:54;102355.75;;;9.70;88.16
70407;BME280;57821;52.202;0.154;2024-01-30T08:18:21;102373.06;;;9.71;87.97
70407;BME280;57821;52.202;0.154;2024-01-30T08:20:47;102386.75;;;9.67;87.01
70407;BME280;57821;52.202;0.154;2024-01-30T08:23:15;102381.50;;;9.64;86.79
70407;BME280;57821;52.202;0.154;2024-01-30T08:25:42;102390.91;;;9.61;86.54
70407;BME280;57821;52.202;0.154;2024-01-30T08:28:09;102386.53;;;9.58;86.18
70407;BME280;57821;52.202;0.154;2024-01-30T08:30:36;102406.31;;;9.56;85.88
70407;BME280;57821;52.202;0.154;2024-01-30T08:33:02;102405.31;;;9.51;85.16
70407;BME280;57821;52.202;0.154;2024-01-30T08:35:29;102407.84;;;9.49;85.81
70407;BME280;57821;52.202;0.154;2024-01-30T08:37:58;102425.88;;;9.45;85.69
70407;BME280;57821;52.202;0.154;2024-01-30T08:40:25;102415.44;;;9.42;85.22
70407;BME280;57821;52.202;0.154;2024-01-30T08:42:51;102430.88;;;9.39;85.07
70407;BME280;57821;52.202;0.154;2024-01-30T08:45:18;102437.81;;;9.40;84.93
70407;BME280;57821;52.202;0.154;2024-01-30T08:47:45;102454.97;;;9.36;84.47
70407;BME280;57821;52.202;0.154;2024-01-30T08:50:12;102448.88;;;9.34;84.80
70407;BME280;57821;52.202;0.154;2024-01-30T08:52:39;102452.16;;;9.29;84.42
70407;BME280;57821;52.202;0.154;2024-01-30T08:55:06;102450.47;;;9.29;83.75
70407;BME280;57821;52.202;0.154;2024-01-30T08:57:33;102443.28;;;9.19;83.54
70407;BME280;57821;52.202;0.154;2024-01-30T08:59:59;102468.44;;;9.25;83.40
70407;BME280;57821;52.202;0.154;2024-01-30T09:02:27;102473.63;;;9.25;83.43
70407;BME280;57821;52.202;0.154;2024-01-30T09:04:53;102478.69;;;9.22;82.69
70407;BME280;57821;52.202;0.154;2024-01-30T09:07:20;102491.63;;;9.22;83.31
70407;BME280;57821;52.202;0.154;2024-01-30T09:09:47;102487.22;;;9.18;83.04
70407;BME280;57821;52.202;0.154;2024-01-30T09:12:14;102498.50;;;9.20;83.27
70407;BME280;57821;52.202;0.154;2024-01-30T09:14:41;102494.97;;;9.18;82.91
70407;BME280;57821;52.202;0.154;2024-01-30T09:17:08;102494.16;;;9.19;82.59
70407;BME280;57821;52.202;0.154;2024-01-30T09:19:35;102499.34;;;9.20;83.01
70407;BME280;57821;52.202;0.154;2024-01-30T09:22:02;102509.75;;;9.22;83.04
70407;BME280;57821;52.202;0.154;2024-01-30T09:24:30;102509.81;;;9.23;83.05
70407;BME280;57821;52.202;0.154;2024-01-30T09:26:56;102515.03;;;9.25;82.73
70407;BME280;57821;52.202;0.154;2024-01-30T09:29:23;102508.09;;;9.24;81.87
70407;BME280;57821;52.202;0.154;2024-01-30T09:31:50;102521.97;;;9.26;81.79
70407;BME280;57821;52.202;0.154;2024-01-30T09:34:17;102524.50;;;9.24;82.29
70407;BME280;57821;52.202;0.154;2024-01-30T09:36:43;102532.41;;;9.29;82.03
70407;BME280;57821;52.202;0.154;2024-01-30T09:39:10;102529.75;;;9.26;81.90
70407;BME280;57821;52.202;0.154;2024-01-30T09:41:45;102534.81;;;9.23;81.61
70407;BME280;57821;52.202;0.154;2024-01-30T09:44:13;102546.22;;;9.29;81.58
70407;BME280;57821;52.202;0.154;2024-01-30T09:46:42;102551.47;;;9.31;81.64
70407;BME280;57821;52.202;0.154;2024-01-30T09:49:09;102553.31;;;9.35;81.15
70407;BME280;57821;52.202;0.154;2024-01-30T09:51:36;102552.41;;;9.34;80.27
70407;BME280;57821;52.202;0.154;2024-01-30T09:54:03;102574.00;;;9.35;80.28
70407;BME280;57821;52.202;0.154;2024-01-30T09:56:36;102581.84;;;9.38;79.80
70407;BME280;57821;52.202;0.154;2024-01-30T09:59:02;102577.53;;;9.37;79.78
70407;BME280;57821;52.202;0.154;2024-01-30T10:01:29;102593.06;;;9.37;79.51
70407;BME280;57821;52.202;0.154;2024-01-30T10:03:57;102595.69;;;9.38;79.74
70407;BME280;57821;52.202;0.154;2024-01-30T10:06:24;102598.25;;;9.37;78.74
70407;BME280;57821;52.202;0.154;2024-01-30T10:08:51;102586.81;;;9.30;79.09
70407;BME280;57821;52.202;0.154;2024-01-30T10:11:18;102599.97;;;9.38;78.50
70407;BME280;57821;52.202;0.154;2024-01-30T10:13:45;102601.66;;;9.36;77.99
70407;BME280;57821;52.202;0.154;2024-01-30T10:16:14;102608.50;;;9.34;78.22
70407;BME280;57821;52.202;0.154;2024-01-30T10:18:41;102616.31;;;9.35;77.69
70407;BME280;57821;52.202;0.154;2024-01-30T10:21:10;102628.38;;;9.35;77.99
70407;BME280;57821;52.202;0.154;2024-01-30T10:23:38;102637.03;;;9.35;77.41
70407;BME280;57821;52.202;0.154;2024-01-30T10:26:04;102631.78;;;9.34;77.41
70407;BME280;57821;52.202;0.154;2024-01-30T10:28:31;102641.22;;;9.32;77.50
70407;BME280;57821;52.202;0.154;2024-01-30T10:30:59;102647.13;;;9.28;77.10
70407;BME280;57821;52.202;0.154;2024-01-30T10:33:31;102647.94;;;9.25;77.29
70407;BME280;57821;52.202;0.154;2024-01-30T10:36:04;102661.84;;;9.29;77.71
70407;BME280;57821;52.202;0.154;2024-01-30T10:38:32;102645.03;;;9.16;78.15
70407;BME280;57821;52.202;0.154;2024-01-30T10:41:00;102665.31;;;9.29;77.48
70407;BME280;57821;52.202;0.154;2024-01-30T10:44:18;102666.19;;;9.30;77.76
70407;BME280;57821;52.202;0.154;2024-01-30T10:47:17;102671.31;;;9.28;76.99
70407;BME280;57821;52.202;0.154;2024-01-30T10:49:48;102664.38;;;9.27;77.83
70407;BME280;57821;52.202;0.154;2024-01-30T10:52:17;102690.25;;;9.27;77.32
70407;BME280;57821;52.202;0.154;2024-01-30T10:54:46;102690.16;;;9.24;77.64
70407;BME280;57821;52.202;0.154;2024-01-30T10:57:15;102699.53;;;9.21;77.34
70407;BME280;57821;52.202;0.154;2024-01-30T10:59:43;102697.78;;;9.20;77.63
70407;BME280;57821;52.202;0.154;2024-01-30T11:02:11;102706.47;;;9.22;77.52
70407;BME280;57821;52.202;0.154;2024-01-30T11:04:38;102712.47;;;9.21;77.05
70407;BME280;57821;52.202;0.154;2024-01-30T11:07:18;102707.16;;;9.16;77.87
70407;BME280;57821;52.202;0.154;2024-01-30T11:12:26;102718.59;;;9.23;77.76
70407;BME280;57821;52.202;0.154;2024-01-30T11:20:27;102715.16;;;9.24;77.96
70407;BME280;57821;52.202;0.154;2024-01-30T11:22:56;102727.38;;;9.28;78.25
70407;BME280;57821;52.202;0.154;2024-01-30T11:25:25;102727.44;;;9.29;78.11
70407;BME280;57821;52.202;0.154;2024-01-30T11:27:56;102749.22;;;9.36;78.56
70407;BME280;57821;52.202;0.154;2024-01-30T11:30:27;102753.59;;;9.37;78.29
70407;BME280;57821;52.202;0.154;2024-01-30T11:33:01;102757.91;;;9.38;77.95
70407;BME280;57821;52.202;0.154;2024-01-30T11:35:33;102756.19;;;9.38;78.25
70407;BME280;57821;52.202;0.154;2024-01-30T11:38:02;102754.50;;;9.39;77.92
70407;BME280;57821;52.202;0.154;2024-01-30T11:40:31;102758.84;;;9.40;78.04
70407;BME280;57821;52.202;0.154;2024-01-30T11:43:00;102746.63;;;9.36;77.95
70407;BME280;57821;52.202;0.154;2024-01-30T11:45:28;102718.38;;;9.17;77.66
70407;BME280;57821;52.202;0.154;2024-01-30T11:47:56;102767.56;;;9.43;77.81
70407;BME280;57821;52.202;0.154;2024-01-30T11:50:26;102758.84;;;9.40;77.90
70407;BME280;57821;52.202;0.154;2024-01-30T11:52:54;102766.00;;;9.47;77.50
70407;BME280;57821;52.202;0.154;2024-01-30T11:55:21;102751.91;;;9.39;77.79
70407;BME280;57821;52.202;0.154;2024-01-30T11:57:48;102767.75;;;9.48;77.65
70407;BME280;57821;52.202;0.154;2024-01-30T12:00:17;102761.56;;;9.43;77.44
70407;BME280;57821;52.202;0.154;2024-01-30T12:02:50;102768.63;;;9.48;77.25
70407;BME280;57821;52.202;0.154;2024-01-30T12:05:19;102780.84;;;9.53;77.27
70407;BME280;57821;52.202;0.154;2024-01-30T12:07:47;102783.38;;;9.51;77.47
70407;BME280;57821;52.202;0.154;2024-01-30T12:10:14;102788.63;;;9.53;77.43
70407;BME280;57821;52.202;0.154;2024-01-30T12:12:45;102782.56;;;9.52;77.50
70407;BME280;57821;52.202;0.154;2024-01-30T12:15:13;102788.69;;;9.54;77.72
70407;BME280;57821;52.202;0.154;2024-01-30T12:17:40;102793.06;;;9.57;77.52
70407;BME280;57821;52.202;0.154;2024-01-30T12:22:37;102789.44;;;9.52;77.50
70407;BME280;57821;52.202;0.154;2024-01-30T12:25:08;102806.13;;;9.60;77.52
70407;BME280;57821;52.202;0.154;2024-01-30T12:27:36;102802.72;;;9.62;77.55
70407;BME280;57821;52.202;0.154;2024-01-30T12:30:11;102800.13;;;9.61;77.31
70407;BME280;57821;52.202;0.154;2024-01-30T12:32:40;102807.72;;;9.56;77.61
70407;BME280;57821;52.202;0.154;2024-01-30T12:35:10;102788.22;;;9.40;77.71
70407;BME280;57821;52.202;0.154;2024-01-30T12:37:38;102823.25;;;9.56;77.12
70407;BME280;57821;52.202;0.154;2024-01-30T12:40:09;102815.28;;;9.50;77.34
70407;BME280;57821;52.202;0.154;2024-01-30T12:42:36;102825.69;;;9.52;77.63
70407;BME280;57821;52.202;0.154;2024-01-30T12:45:04;102833.41;;;9.50;77.74
70407;BME280;57821;52.202;0.154;2024-01-30T12:47:32;102835.16;;;9.51;77.51
70407;BME280;57821;52.202;0.154;2024-01-30T12:49:58;102841.91;;;9.46;77.56
70407;BME280;57821;52.202;0.154;2024-01-30T12:52:26;102844.41;;;9.43;77.85
70407;BME280;57821;52.202;0.154;2024-01-30T12:54:53;102852.19;;;9.43;77.66
70407;BME280;57821;52.202;0.154;2024-01-30T12:57:21;102830.25;;;9.33;77.69
70407;BME280;57821;52.202;0.154;2024-01-30T12:59:49;102844.44;;;9.44;77.57
70407;BME280;57821;52.202;0.154;2024-01-30T13:02:16;102853.28;;;9.51;78.35
70407;BME280;57821;52.202;0.154;2024-01-30T13:04:43;102855.94;;;9.53;78.05
70407;BME280;57821;52.202;0.154;2024-01-30T13:07:14;102858.63;;;9.56;78.23
70407;BME280;57821;52.202;0.154;2024-01-30T13:09:44;102850.03;;;9.57;78.05